Time;durP1;ratioP1;P1;durP2;ratioP2;P2;SDS_P1;SDS_P2;PMS_P1;PMS_P2;Temp;Humidity;BMP_temperature;BMP_pressure;BME280_temperature;BME280_humidity;BME280_pressure;Samples;Min_cycle;Max_cycle;Signal;HPM_P1;HPM_P2
2021/03/29 00:00:51;;;;;;;11.18;4.30;;;;;;;8.37;79.43;102538.59;4978535;28;20027;-66
2021/03/29 00:03:17;;;;;;;14.50;4.72;;;;;;;8.39;79.36;102535.81;4990100;28;20413;-67
2021/03/29 00:05:43;;;;;;;16.58;5.00;;;;;;;8.34;79.93;102544.09;4984306;28;20039;-67
2021/03/29 00:08:16;;;;;;;10.88;4.82;;;;;;;8.31;79.93;102554.09;4990211;28;20038;-66
2021/03/29 00:10:44;;;;;;;11.48;4.97;;;;;;;8.25;79.91;102550.00;4996296;28;20109;-68
2021/03/29 00:13:10;;;;;;;9.15;4.03;;;;;;;8.21;80.27;102551.16;4982821;28;20522;-67
2021/03/29 00:15:39;;;;;;;17.67;5.05;;;;;;;8.24;80.34;102551.81;4982004;28;20113;-66
2021/03/29 00:18:07;;;;;;;10.63;4.65;;;;;;;8.22;80.74;102556.34;4980380;28;20030;-67
2021/03/29 00:20:33;;;;;;;15.90;5.20;;;;;;;8.19;80.62;102564.56;4976970;28;20034;-67
2021/03/29 00:22:59;;;;;;;14.65;4.85;;;;;;;8.18;80.30;102560.19;4984429;28;20121;-67
2021/03/29 00:25:27;;;;;;;13.25;5.15;;;;;;;8.20;80.48;102563.59;4983840;28;20504;-67
2021/03/29 00:27:52;;;;;;;17.13;5.28;;;;;;;8.04;80.50;102539.75;4984005;28;20509;-68
2021/03/29 00:30:21;;;;;;;14.13;5.28;;;;;;;8.21;80.63;102559.13;4988193;28;20034;-68
2021/03/29 00:32:48;;;;;;;13.73;5.70;;;;;;;8.14;80.26;102556.00;4983140;28;20059;-68
2021/03/29 00:35:21;;;;;;;14.77;5.35;;;;;;;8.19;80.31;102548.59;4984373;28;20089;-67
2021/03/29 00:37:53;;;;;;;17.90;5.40;;;;;;;8.15;80.50;102547.06;4982024;28;20084;-67
2021/03/29 00:40:19;;;;;;;14.60;4.78;;;;;;;8.18;80.31;102548.66;5004693;28;20113;-67
2021/03/29 00:42:47;;;;;;;12.05;5.47;;;;;;;8.15;80.05;102549.72;4984639;28;20488;-67
2021/03/29 00:45:19;;;;;;;15.30;5.18;;;;;;;8.12;80.41;102555.22;4979468;28;20121;-67
2021/03/29 00:47:46;;;;;;;15.77;5.88;;;;;;;8.05;81.12;102545.94;4981061;28;20026;-68
2021/03/29 00:50:38;;;;;;;17.98;6.07;;;;;;;8.03;80.66;102548.66;4984700;28;20069;-67
2021/03/29 00:53:04;;;;;;;10.63;5.50;;;;;;;8.03;81.49;102547.84;4993604;28;20060;-68
2021/03/29 00:55:31;;;;;;;14.10;4.82;;;;;;;8.00;80.55;102548.88;4990014;28;20163;-68
2021/03/29 00:57:59;;;;;;;12.98;5.10;;;;;;;7.99;80.94;102540.97;4982213;28;20038;-67
2021/03/29 01:00:36;;;;;;;14.82;5.57;;;;;;;7.62;80.76;102486.47;4973183;28;20062;-68
2021/03/29 01:03:08;;;;;;;12.93;5.32;;;;;;;7.96;81.05;102542.88;4976550;28;20034;-69
2021/03/29 01:05:34;;;;;;;15.65;5.40;;;;;;;7.86;81.28;102528.44;4982756;28;20033;-67
2021/03/29 01:08:00;;;;;;;14.13;5.32;;;;;;;7.93;80.82;102548.41;4973937;28;20043;-68
2021/03/29 01:10:25;;;;;;;12.02;5.47;;;;;;;7.92;81.25;102541.38;4981073;28;20105;-67
2021/03/29 01:12:52;;;;;;;16.67;5.38;;;;;;;7.87;81.18;102542.59;4987043;28;20504;-67
2021/03/29 01:15:21;;;;;;;13.93;5.70;;;;;;;7.85;81.68;102541.84;4984799;28;20052;-68
2021/03/29 01:17:49;;;;;;;13.18;5.18;;;;;;;7.79;81.46;102545.72;4965398;28;20042;-67
2021/03/29 01:20:44;;;;;;;16.33;5.30;;;;;;;7.83;81.00;102557.88;4984422;28;20065;-67
2021/03/29 01:23:12;;;;;;;17.60;5.78;;;;;;;7.75;81.50;102553.00;4988469;28;20042;-67
2021/03/29 01:25:43;;;;;;;;;;;;;;;7.71;81.52;102554.16;4992185;28;20027;-69
2021/03/29 01:28:15;;;;;;;16.60;6.10;;;;;;;7.61;81.77;102547.66;4979454;28;20005;-67
2021/03/29 01:30:42;;;;;;;20.42;5.70;;;;;;;7.52;82.30;102541.13;4978244;28;20038;-67
2021/03/29 01:33:09;;;;;;;14.82;5.75;;;;;;;7.33;82.32;102505.03;4980934;28;20034;-68
2021/03/29 01:35:42;;;;;;;13.23;5.75;;;;;;;7.56;82.24;102542.63;4987558;28;20078;-67
2021/03/29 01:38:08;;;;;;;19.42;6.32;;;;;;;7.56;82.90;102549.75;4981128;28;20038;-68
2021/03/29 01:40:39;;;;;;;18.88;5.95;;;;;;;7.57;82.13;102549.66;4984487;28;20018;-68
2021/03/29 01:43:06;;;;;;;18.13;6.22;;;;;;;7.56;82.46;102541.78;4980528;28;20046;-69
2021/03/29 01:45:32;;;;;;;17.00;7.20;;;;;;;7.55;82.79;102556.84;4976221;28;20033;-67
2021/03/29 01:47:58;;;;;;;15.70;6.60;;;;;;;7.51;82.53;102548.22;4970172;28;20469;-67
2021/03/29 01:50:28;;;;;;;16.90;6.97;;;;;;;7.39;82.80;102534.84;4972623;28;20055;-68
2021/03/29 01:52:55;;;;;;;17.77;6.60;;;;;;;7.37;82.93;102528.75;4972858;28;20029;-68
2021/03/29 01:55:22;;;;;;;22.92;7.57;;;;;;;7.51;83.13;102561.50;4978725;28;20079;-67
2021/03/29 01:57:47;;;;;;;22.60;7.93;;;;;;;7.54;83.04;102552.50;4982047;28;20073;-67
2021/03/29 02:00:17;;;;;;;20.70;7.30;;;;;;;7.57;82.91;102551.47;4975710;28;20038;-68
2021/03/29 02:02:43;;;;;;;19.80;7.88;;;;;;;7.42;82.86;102524.00;4982246;28;20501;-69
2021/03/29 02:05:12;;;;;;;14.13;6.68;;;;;;;7.63;82.37;102548.44;4989166;28;20137;-68
2021/03/29 02:07:38;;;;;;;;;;;;;;;7.65;82.69;102558.03;4983753;28;20088;-68
2021/03/29 02:10:24;;;;;;;21.65;8.07;;;;;;;7.69;82.46;102550.75;4982372;28;19914;-67
2021/03/29 02:12:50;;;;;;;15.85;7.57;;;;;;;7.72;82.70;102553.22;4976753;28;20039;-67
2021/03/29 02:15:25;;;;;;;18.48;7.80;;;;;;;7.76;82.28;102553.88;4984480;28;20113;-67
2021/03/29 02:17:59;;;;;;;16.73;7.40;;;;;;;7.78;82.45;102549.34;4980896;28;20034;-67
2021/03/29 02:20:28;;;;;;;17.92;8.05;;;;;;;7.82;82.86;102545.53;4977319;28;20537;-69
2021/03/29 02:22:54;;;;;;;16.05;7.28;;;;;;;7.82;81.85;102538.41;4979999;28;20122;-67
2021/03/29 02:25:22;;;;;;;20.35;8.57;;;;;;;7.76;81.91;102530.81;4977315;28;20043;-68
2021/03/29 02:27:49;;;;;;;;;;;;;;;7.90;82.35;102556.56;4975313;28;20046;-67
2021/03/29 02:30:19;;;;;;;18.55;7.05;;;;;;;7.80;81.95;102545.63;4983261;28;20348;-67
2021/03/29 02:32:47;;;;;;;19.98;7.80;;;;;;;7.64;82.14;102505.84;4985935;28;20036;-67
2021/03/29 02:35:14;;;;;;;17.20;7.78;;;;;;;7.90;82.67;102559.22;4987119;28;20599;-67
2021/03/29 02:37:47;;;;;;;19.77;8.13;;;;;;;7.91;82.23;102554.75;4982999;28;20183;-67
2021/03/29 02:40:14;;;;;;;18.95;7.95;;;;;;;7.92;82.20;102561.78;4986994;28;20088;-67
2021/03/29 02:42:40;;;;;;;19.70;8.52;;;;;;;7.96;82.27;102555.31;4980369;28;20125;-68
2021/03/29 02:45:09;;;;;;;22.50;8.55;;;;;;;7.95;82.05;102548.28;4982659;28;20043;-67
2021/03/29 02:47:37;;;;;;;24.65;8.98;;;;;;;7.97;82.43;102554.38;4978752;28;20026;-67
2021/03/29 02:50:07;;;;;;;17.63;8.07;;;;;;;7.97;81.84;102555.22;4982343;28;20037;-66
2021/03/29 02:52:34;;;;;;;28.42;7.93;;;;;;;7.97;82.08;102549.91;4979364;28;20088;-66
2021/03/29 02:55:00;;;;;;;15.75;7.85;;;;;;;7.82;81.73;102522.47;4975811;28;20498;-66
2021/03/29 02:57:27;;;;;;;18.02;7.35;;;;;;;7.98;81.55;102540.16;4972609;28;20062;-67
2021/03/29 02:59:54;;;;;;;15.18;7.32;;;;;;;7.94;81.69;102541.25;4982260;28;20037;-68
2021/03/29 03:02:21;;;;;;;18.20;7.95;;;;;;;7.82;82.19;102526.91;4975203;28;20077;-66
2021/03/29 03:04:47;;;;;;;19.90;8.35;;;;;;;7.86;82.30;102536.41;4982128;28;20038;-68
2021/03/29 03:07:13;;;;;;;21.67;8.13;;;;;;;7.79;82.44;102525.31;4983541;28;20550;-68
2021/03/29 03:09:41;;;;;;;16.73;8.02;;;;;;;7.82;82.34;102532.22;4969653;28;20109;-66
2021/03/29 03:12:08;;;;;;;22.60;8.35;;;;;;;7.78;83.20;102528.91;4984002;28;20129;-66
2021/03/29 03:14:34;;;;;;;19.77;8.30;;;;;;;7.78;82.69;102541.34;4984308;28;20018;-66
2021/03/29 03:16:59;;;;;;;17.60;8.20;;;;;;;7.76;82.99;102541.44;4985852;28;20038;-67
2021/03/29 03:19:25;;;;;;;18.50;7.82;;;;;;;7.76;82.40;102533.47;4984746;28;20047;-66
2021/03/29 03:21:51;;;;;;;17.25;8.25;;;;;;;7.75;83.33;102541.53;4982519;28;20027;-66
2021/03/29 03:24:16;;;;;;;17.30;7.53;;;;;;;7.39;83.08;102477.25;4999407;28;20035;-66
2021/03/29 03:26:42;;;;;;;16.65;7.45;;;;;;;7.58;82.85;102500.88;4983848;28;20126;-67
2021/03/29 03:29:08;;;;;;;19.05;7.45;;;;;;;7.78;82.42;102534.22;4968904;28;20030;-68
2021/03/29 03:31:34;;;;;;;19.05;7.25;;;;;;;7.48;82.66;102479.34;4980898;28;21069;-67
2021/03/29 03:33:59;;;;;;;14.55;6.28;;;;;;;7.82;82.48;102533.09;4987284;28;20034;-67
2021/03/29 03:36:28;;;;;;;15.65;6.90;;;;;;;7.81;82.39;102534.03;4987357;28;20030;-67
2021/03/29 03:38:54;;;;;;;22.98;6.97;;;;;;;7.61;82.50;102500.72;4981111;28;20033;-66
2021/03/29 03:41:25;;;;;;;18.33;6.82;;;;;;;7.84;82.11;102540.97;4981625;28;20030;-67
2021/03/29 03:43:55;;;;;;;13.13;6.30;;;;;;;7.88;82.56;102539.84;4984712;28;20109;-67
2021/03/29 03:46:23;;;;;;;16.35;6.60;;;;;;;7.86;82.25;102539.06;4968871;28;20058;-66
2021/03/29 03:48:51;;;;;;;13.25;6.60;;;;;;;7.61;82.81;102502.50;4982868;28;20027;-66
2021/03/29 03:51:17;;;;;;;23.05;6.20;;;;;;;7.84;82.71;102551.59;4986861;28;20449;-67
2021/03/29 03:53:42;;;;;;;17.13;6.70;;;;;;;7.84;82.68;102548.94;4984016;28;20405;-67
2021/03/29 03:56:09;;;;;;;18.88;6.68;;;;;;;7.78;82.77;102558.16;4984121;28;20046;-68
2021/03/29 03:58:35;;;;;;;18.40;6.38;;;;;;;7.82;82.93;102565.00;4976067;28;20520;-67
2021/03/29 04:01:01;;;;;;;15.55;7.07;;;;;;;7.81;82.83;102565.94;4981329;28;20531;-67
2021/03/29 04:03:28;;;;;;;18.15;6.72;;;;;;;7.79;82.70;102567.00;4977730;28;20038;-68
2021/03/29 04:05:55;;;;;;;17.00;6.90;;;;;;;7.78;83.55;102567.94;4987984;28;20030;-66
2021/03/29 04:08:20;;;;;;;20.50;7.05;;;;;;;7.77;82.88;102569.72;4985667;28;21038;-67
2021/03/29 04:10:51;;;;;;;22.08;6.55;;;;;;;7.75;83.39;102570.78;4978015;28;20115;-68
2021/03/29 04:13:38;;;;;;;18.80;6.43;;;;;;;7.74;83.54;102574.38;4986308;28;20081;-68
2021/03/29 04:16:06;;;;;;;13.88;6.10;;;;;;;7.72;83.19;102570.94;4981432;28;20125;-66
2021/03/29 04:18:31;;;;;;;;;;;;;;;7.70;83.41;102567.53;4980790;28;20040;-67
2021/03/29 04:20:58;;;;;;;16.40;5.55;;;;;;;7.70;83.25;102572.84;4988529;28;20020;-66
2021/03/29 04:23:24;;;;;;;14.55;5.97;;;;;;;7.60;83.63;102567.25;4978465;28;20062;-67
2021/03/29 04:25:51;;;;;;;17.95;6.63;;;;;;;7.56;83.73;102560.38;4977587;28;20046;-67
2021/03/29 04:28:17;;;;;;;17.75;6.10;;;;;;;7.62;83.70;102573.28;4977998;28;20026;-66
2021/03/29 04:30:43;;;;;;;20.27;6.03;;;;;;;7.57;83.63;102576.22;4980644;28;20110;-67
2021/03/29 04:33:09;;;;;;;18.15;5.60;;;;;;;7.55;84.23;102578.13;4977985;28;20030;-66
2021/03/29 04:35:35;;;;;;;16.77;5.57;;;;;;;7.32;84.10;102537.84;4975511;28;20027;-68
2021/03/29 04:38:00;;;;;;;16.05;6.05;;;;;;;7.38;84.61;102562.34;4980441;28;20027;-68
2021/03/29 04:40:28;;;;;;;17.80;6.15;;;;;;;7.45;84.88;102568.97;4978361;28;20034;-68
2021/03/29 04:42:54;;;;;;;16.30;5.47;;;;;;;7.44;84.66;102575.25;4978229;28;20042;-67
2021/03/29 04:45:21;;;;;;;16.27;5.43;;;;;;;7.34;84.87;102559.84;4963383;28;20088;-66
2021/03/29 04:47:47;;;;;;;17.77;5.75;;;;;;;7.43;85.05;102570.88;4974111;28;20398;-66
2021/03/29 04:50:14;;;;;;;21.25;5.68;;;;;;;7.42;84.93;102572.69;4980967;28;20045;-67
2021/03/29 04:52:40;;;;;;;17.30;6.00;;;;;;;7.25;84.91;102533.84;4973189;28;20030;-67
2021/03/29 04:55:07;;;;;;;14.45;4.78;;;;;;;7.27;84.63;102533.75;4966721;28;20059;-67
2021/03/29 04:57:32;;;;;;;19.02;5.57;;;;;;;7.45;85.08;102563.66;4977363;28;20141;-67
2021/03/29 04:59:58;;;;;;;15.23;5.20;;;;;;;7.40;84.92;102563.06;4981375;28;20512;-67
2021/03/29 05:02:23;;;;;;;14.20;5.50;;;;;;;7.46;85.38;102576.00;4925432;28;20046;-67
2021/03/29 05:04:49;;;;;;;14.82;5.47;;;;;;;7.46;84.96;102574.22;4983609;28;20574;-66
2021/03/29 05:07:14;;;;;;;19.45;6.28;;;;;;;7.45;85.20;102571.63;4973481;28;20398;-67
2021/03/29 05:09:41;;;;;;;16.58;5.90;;;;;;;7.45;85.18;102584.91;4976978;28;20584;-67
2021/03/29 05:12:11;;;;;;;17.92;5.25;;;;;;;7.44;85.45;102586.75;4976343;28;20117;-67
2021/03/29 05:14:38;;;;;;;17.42;5.50;;;;;;;7.42;85.09;102583.31;4983055;28;20054;-68
2021/03/29 05:17:05;;;;;;;13.20;5.55;;;;;;;7.42;85.18;102591.28;4974598;28;20502;-68
2021/03/29 05:19:31;;;;;;;13.75;5.20;;;;;;;7.46;85.09;102597.25;4980435;28;20069;-67
2021/03/29 05:21:56;;;;;;;18.63;5.13;;;;;;;7.46;84.92;102594.59;4975870;28;20023;-67
2021/03/29 05:24:22;;;;;;;15.32;6.05;;;;;;;7.45;84.99;102600.84;4975591;28;20037;-67
2021/03/29 05:26:47;;;;;;;9.80;5.20;;;;;;;7.46;84.87;102599.91;4980986;28;20556;-67
2021/03/29 05:29:13;;;;;;;21.88;6.20;;;;;;;7.43;85.53;102598.31;4986727;28;20104;-67
2021/03/29 05:31:40;;;;;;;14.02;5.55;;;;;;;7.29;85.45;102577.00;4981389;28;20053;-68
2021/03/29 05:34:11;;;;;;;15.50;5.45;;;;;;;7.42;85.28;102601.03;4984488;28;20126;-68
2021/03/29 05:36:40;;;;;;;16.33;5.72;;;;;;;7.43;84.95;102605.41;4980732;28;20026;-66
2021/03/29 05:39:09;;;;;;;17.92;5.68;;;;;;;7.31;85.53;102593.72;4983822;28;20034;-67
2021/03/29 05:41:37;;;;;;;;;;;;;;;7.38;85.93;102613.63;4981270;28;20031;-66
2021/03/29 05:44:02;;;;;;;19.33;5.30;;;;;;;7.40;85.70;102621.50;4981168;28;19921;-66
2021/03/29 05:46:28;;;;;;;12.73;5.50;;;;;;;7.42;85.72;102617.84;4980537;28;20031;-67
2021/03/29 05:48:54;;;;;;;16.80;6.07;;;;;;;7.43;85.72;102624.88;4982940;28;20069;-67
2021/03/29 05:51:20;;;;;;;15.18;5.35;;;;;;;7.42;85.66;102623.16;4983041;28;20037;-66
2021/03/29 05:53:45;;;;;;;15.95;5.72;;;;;;;7.42;85.81;102619.63;4983774;28;20045;-67
2021/03/29 05:56:13;;;;;;;12.95;5.35;;;;;;;7.44;86.09;102631.03;4982907;28;20576;-69
2021/03/29 05:58:44;;;;;;;22.58;6.10;;;;;;;7.48;85.77;102630.75;4974676;28;20058;-68
2021/03/29 06:01:10;;;;;;;21.70;5.93;;;;;;;7.39;85.35;102609.19;4973919;28;20030;-68
2021/03/29 06:03:39;;;;;;;16.70;5.43;;;;;;;7.59;85.27;102629.28;4977343;28;20461;-68
2021/03/29 06:06:13;;;;;;;18.90;5.88;;;;;;;7.63;84.98;102631.69;4979040;28;20046;-69
2021/03/29 06:08:43;;;;;;;20.67;5.95;;;;;;;7.60;85.53;102631.84;4975427;28;20544;-69
2021/03/29 06:11:20;;;;;;;14.65;5.32;;;;;;;7.70;84.96;102645.47;4981828;28;20054;-69
2021/03/29 06:13:46;;;;;;;21.88;5.72;;;;;;;7.73;84.63;102650.59;4986024;28;20062;-69
2021/03/29 06:16:11;;;;;;;15.70;5.57;;;;;;;7.71;85.17;102659.59;4984706;28;20116;-69
2021/03/29 06:18:48;;;;;;;17.88;6.03;;;;;;;7.75;85.14;102659.31;4977515;28;20389;-69
2021/03/29 06:21:13;;;;;;;15.63;5.80;;;;;;;7.77;85.19;102651.28;4987438;28;20037;-69
2021/03/29 06:23:43;;;;;;;13.32;5.30;;;;;;;7.80;84.79;102665.22;4976125;28;20022;-69
2021/03/29 06:26:23;;;;;;;15.15;5.30;;;;;;;7.88;84.72;102671.88;4988606;28;20064;-69
2021/03/29 06:28:49;;;;;;;16.73;5.85;;;;;;;7.89;84.84;102665.63;4970911;28;20027;-69
2021/03/29 06:31:27;;;;;;;18.60;6.03;;;;;;;7.95;84.59;102666.09;4974170;28;20030;-69
2021/03/29 06:33:53;;;;;;;15.88;5.75;;;;;;;7.96;84.50;102659.84;4973691;28;20061;-69
2021/03/29 06:36:38;;;;;;;13.88;5.53;;;;;;;8.12;84.38;102669.56;4977188;28;20486;-68
2021/03/29 06:39:11;;;;;;;17.08;5.75;;;;;;;8.26;83.85;102677.56;4980180;28;20030;-69
2021/03/29 06:41:37;;;;;;;18.90;5.70;;;;;;;8.45;83.76;102683.56;4976482;28;20029;-69
2021/03/29 06:44:03;;;;;;;14.52;5.40;;;;;;;8.57;82.40;102678.41;4977288;28;20515;-69
2021/03/29 06:46:29;;;;;;;17.17;5.30;;;;;;;8.91;81.70;102677.22;4982172;28;20047;-69
2021/03/29 06:48:57;;;;;;;15.05;4.90;;;;;;;9.85;79.85;102692.44;4969587;28;20049;-69
2021/03/29 06:51:25;;;;;;;12.85;4.70;;;;;;;11.19;73.76;102692.13;4980663;28;20113;-69
2021/03/29 06:53:56;;;;;;;15.10;4.75;;;;;;;12.37;68.14;102694.88;4986281;28;20026;-69
2021/03/29 06:56:27;;;;;;;12.98;4.38;;;;;;;13.47;64.29;102699.59;4982112;28;20039;-69
2021/03/29 06:58:54;;;;;;;12.48;4.05;;;;;;;14.07;61.37;102703.59;4984196;28;20045;-69
2021/03/29 07:01:24;;;;;;;13.57;4.17;;;;;;;14.61;59.66;102700.78;4980337;28;20049;-66
2021/03/29 07:03:50;;;;;;;11.52;4.45;;;;;;;15.18;58.05;102703.00;4987193;28;20046;-68
2021/03/29 07:06:18;;;;;;;14.07;4.10;;;;;;;15.65;56.05;102708.56;4984765;28;20038;-67
2021/03/29 07:08:47;;;;;;;11.57;4.17;;;;;;;15.82;55.61;102706.97;4987994;28;20117;-67
2021/03/29 07:11:17;;;;;;;11.48;4.00;;;;;;;16.50;53.62;102718.66;4985826;28;20512;-68
2021/03/29 07:13:44;;;;;;;12.82;4.07;;;;;;;16.67;52.83;102715.22;4985870;28;20039;-67
2021/03/29 07:16:10;;;;;;;12.43;4.22;;;;;;;16.89;51.99;102712.28;4985651;28;20053;-68
2021/03/29 07:18:38;;;;;;;11.15;4.05;;;;;;;16.94;51.55;102705.47;4979636;28;20042;-68
2021/03/29 07:21:05;;;;;;;12.05;3.90;;;;;;;16.56;52.32;102684.91;4978853;28;20026;-68
2021/03/29 07:23:32;;;;;;;11.93;4.30;;;;;;;16.90;52.32;102705.88;4979940;28;20019;-67
2021/03/29 07:25:58;;;;;;;14.85;4.40;;;;;;;16.99;51.25;102705.84;4983267;28;20030;-68
2021/03/29 07:28:28;;;;;;;12.57;4.05;;;;;;;16.66;52.28;102704.56;4974351;28;20495;-68
2021/03/29 07:30:59;;;;;;;11.35;4.03;;;;;;;16.96;52.26;102708.00;4972641;28;20026;-68
2021/03/29 07:33:25;;;;;;;12.32;4.28;;;;;;;16.89;51.88;102717.69;4971626;28;20053;-68
2021/03/29 07:35:55;;;;;;;14.13;4.60;;;;;;;16.11;53.45;102694.53;4970890;28;20118;-68
2021/03/29 07:38:26;;;;;;;12.52;3.80;;;;;;;15.56;55.85;102704.03;4973575;28;20034;-67
2021/03/29 07:40:54;;;;;;;12.20;4.10;;;;;;;15.38;56.37;102709.25;4972027;28;20173;-67
2021/03/29 07:43:22;;;;;;;14.52;4.40;;;;;;;14.69;58.88;102717.97;4973899;28;20142;-68
2021/03/29 07:45:50;;;;;;;14.55;4.85;;;;;;;14.59;59.53;102718.88;4976526;28;20023;-67
2021/03/29 07:48:30;;;;;;;;;;;;;;;14.85;59.54;102732.75;4980985;28;20037;-67
2021/03/29 07:50:56;;;;;;;9.27;4.15;;;;;;;16.06;55.90;102732.66;4974408;28;19949;-68
2021/03/29 07:53:47;;;;;;;12.20;3.95;;;;;;;16.82;53.93;102730.91;4968014;28;20494;-68
2021/03/29 07:56:38;;;;;;;18.92;4.72;;;;;;;17.80;50.48;102740.25;4971645;28;20129;-67
2021/03/29 07:59:04;;;;;;;13.25;4.20;;;;;;;18.10;49.63;102747.13;4968545;28;20267;-67
2021/03/29 08:02:00;;;;;;;9.82;4.22;;;;;;;18.30;48.77;102747.75;4960134;28;20402;-68
2021/03/29 08:05:00;;;;;;;13.10;4.00;;;;;;;19.07;47.13;102741.63;4970107;28;20109;-67
2021/03/29 08:07:46;;;;;;;12.35;3.97;;;;;;;19.47;45.90;102750.03;4986262;28;20081;-67
2021/03/29 08:10:15;;;;;;;9.93;4.07;;;;;;;20.04;44.93;102754.66;4978010;28;20497;-67
2021/03/29 08:13:00;;;;;;;11.82;4.13;;;;;;;19.83;45.48;102767.81;4974388;28;20085;-68
2021/03/29 08:16:01;;;;;;;13.60;4.40;;;;;;;19.81;44.58;102757.16;4969905;28;20038;-68
2021/03/29 08:18:26;;;;;;;11.90;3.90;;;;;;;19.97;44.11;102764.47;4971472;28;20029;-68
2021/03/29 08:20:53;;;;;;;14.38;4.30;;;;;;;19.92;44.50;102768.72;4981223;28;20261;-68
2021/03/29 08:23:32;;;;;;;10.35;4.00;;;;;;;19.94;44.25;102767.56;4969888;28;20499;-68
2021/03/29 08:26:22;;;;;;;9.52;3.60;;;;;;;20.46;43.31;102758.16;4954258;28;20063;-68
2021/03/29 08:29:06;;;;;;;12.77;4.00;;;;;;;20.72;41.92;102770.63;4980957;28;20112;-69
2021/03/29 08:31:59;;;;;;;8.45;3.30;;;;;;;21.00;41.55;102767.53;4975922;28;20816;-68
2021/03/29 08:34:26;;;;;;;11.32;3.78;;;;;;;20.96;41.42;102771.63;4973533;28;20041;-68
2021/03/29 08:36:54;;;;;;;12.13;3.90;;;;;;;21.26;40.60;102771.81;4971669;28;21777;-69
2021/03/29 08:39:21;;;;;;;12.68;3.88;;;;;;;21.24;40.84;102769.28;4976683;28;20060;-69
2021/03/29 08:41:51;;;;;;;11.77;4.07;;;;;;;21.08;41.34;102786.50;4986593;28;20033;-68
2021/03/29 08:44:17;;;;;;;14.05;4.07;;;;;;;21.03;41.67;102782.63;4968264;28;20030;-69
2021/03/29 08:46:44;;;;;;;11.18;4.13;;;;;;;21.14;41.34;102787.66;4973127;28;20066;-69
2021/03/29 08:49:10;;;;;;;16.20;4.70;;;;;;;21.28;41.44;102788.78;4989963;28;20035;-69
2021/03/29 08:51:36;;;;;;;12.45;4.13;;;;;;;21.39;40.47;102776.66;4969528;28;20041;-69
2021/03/29 08:54:10;;;;;;;13.15;3.97;;;;;;;21.49;40.65;102795.47;4966695;28;20417;-68
2021/03/29 08:56:43;;;;;;;12.68;3.97;;;;;;;21.83;39.65;102796.97;4963410;28;20061;-69
2021/03/29 08:59:10;;;;;;;13.93;3.80;;;;;;;22.06;39.17;102799.66;4969709;28;20538;-69
2021/03/29 09:01:39;;;;;;;12.13;3.90;;;;;;;22.14;38.68;102801.47;4965033;28;20026;-69
2021/03/29 09:04:08;;;;;;;12.73;4.50;;;;;;;21.96;39.19;102794.47;4969433;28;20067;-68
2021/03/29 09:06:35;;;;;;;13.13;3.50;;;;;;;21.27;40.24;102803.38;4967335;28;20141;-69
2021/03/29 09:09:14;;;;;;;10.38;3.50;;;;;;;21.36;40.75;102805.03;4981824;28;20040;-68
2021/03/29 09:11:44;;;;;;;11.75;3.60;;;;;;;21.87;39.17;102814.59;4976691;28;20038;-69
2021/03/29 09:14:11;;;;;;;13.95;4.00;;;;;;;21.80;39.36;102813.63;4982205;28;20038;-69
2021/03/29 09:16:38;;;;;;;15.75;4.50;;;;;;;21.57;40.45;102822.56;4981633;28;20014;-69
2021/03/29 09:19:33;;;;;;;12.97;3.77;;;;;;;21.91;39.31;102825.94;4996505;28;20413;-68
2021/03/29 09:22:02;;;;;;;11.32;3.50;;;;;;;22.04;39.28;102828.91;4998546;28;20042;-69
2021/03/29 09:24:29;;;;;;;12.20;4.20;;;;;;;21.57;39.91;102836.16;4981667;28;20035;-69
2021/03/29 09:27:11;;;;;;;13.70;3.93;;;;;;;21.61;40.27;102832.09;4982420;28;20062;-68
2021/03/29 09:29:41;;;;;;;14.35;3.63;;;;;;;21.01;41.24;102838.94;4983543;28;20457;-69
2021/03/29 09:32:16;;;;;;;12.02;4.32;;;;;;;20.57;41.91;102837.47;4982026;28;20125;-70
2021/03/29 09:34:47;;;;;;;13.18;3.92;;;;;;;20.32;42.89;102837.47;4983954;28;20026;-69
2021/03/29 09:37:17;;;;;;;15.55;4.40;;;;;;;19.76;45.20;102840.78;4975851;28;20043;-69
2021/03/29 09:39:43;;;;;;;13.68;4.18;;;;;;;19.17;46.34;102857.84;4975627;28;20038;-69
2021/03/29 09:42:08;;;;;;;19.73;4.90;;;;;;;18.86;47.01;102849.38;4978890;28;20061;-69
2021/03/29 09:44:34;;;;;;;17.73;4.60;;;;;;;18.22;48.49;102850.41;4975104;28;20587;-69
2021/03/29 09:47:00;;;;;;;12.98;3.95;;;;;;;17.90;48.48;102858.00;4973734;28;20031;-70
2021/03/29 09:49:26;;;;;;;11.80;3.70;;;;;;;17.59;49.72;102852.94;4979693;28;20108;-69
2021/03/29 09:52:02;;;;;;;15.82;4.57;;;;;;;17.22;50.42;102858.38;4966969;28;20035;-69
2021/03/29 09:54:37;;;;;;;12.77;3.88;;;;;;;16.81;51.25;102839.75;4975079;28;20113;-68
2021/03/29 09:57:22;;;;;;;18.80;4.50;;;;;;;16.66;52.41;102859.06;4973909;28;20791;-69
2021/03/29 09:59:52;;;;;;;14.57;4.20;;;;;;;16.55;53.87;102861.06;4975684;28;20089;-68
2021/03/29 10:02:21;;;;;;;18.15;4.05;;;;;;;16.46;52.29;102862.75;4975060;28;20039;-69
2021/03/29 10:05:02;;;;;;;13.25;4.13;;;;;;;16.15;53.90;102861.06;4981488;28;20033;-69
2021/03/29 10:07:28;;;;;;;10.90;4.25;;;;;;;15.97;56.03;102868.13;4971194;28;20030;-69
2021/03/29 10:10:02;;;;;;;17.13;4.95;;;;;;;15.98;54.92;102849.16;4969507;28;20540;-69
2021/03/29 10:12:29;;;;;;;16.60;4.78;;;;;;;16.11;55.40;102856.13;4970000;28;20096;-68
2021/03/29 10:15:12;;;;;;;14.18;4.38;;;;;;;16.17;54.51;102858.22;4974105;28;20030;-69
2021/03/29 10:17:38;;;;;;;17.17;4.57;;;;;;;15.93;54.47;102864.03;4970386;28;20078;-71
2021/03/29 10:20:07;;;;;;;15.48;4.25;;;;;;;15.66;56.28;102866.34;4981017;28;20027;-69
2021/03/29 10:22:32;;;;;;;17.70;4.68;;;;;;;15.59;56.15;102863.34;4966958;28;20034;-69
2021/03/29 10:25:12;;;;;;;12.88;4.05;;;;;;;15.74;56.09;102866.50;4979751;28;20031;-68
2021/03/29 10:27:38;;;;;;;12.32;4.07;;;;;;;15.66;55.86;102868.19;4968572;28;20030;-67
2021/03/29 10:30:08;;;;;;;17.33;4.85;;;;;;;15.54;56.45;102867.44;4979133;28;20041;-69
2021/03/29 10:32:34;;;;;;;17.23;4.38;;;;;;;15.60;55.91;102870.44;4975417;28;20097;-68
2021/03/29 10:35:00;;;;;;;10.38;4.45;;;;;;;15.74;55.78;102865.66;4984191;28;20074;-69
2021/03/29 10:37:29;;;;;;;17.27;4.57;;;;;;;15.88;55.12;102876.06;4971396;28;22378;-68
2021/03/29 10:39:57;;;;;;;15.40;4.93;;;;;;;15.91;54.48;102875.78;4969258;28;20038;-69
2021/03/29 10:42:25;;;;;;;13.93;3.80;;;;;;;15.80;54.85;102867.81;4978886;28;20038;-69
2021/03/29 10:44:52;;;;;;;13.40;4.20;;;;;;;15.83;55.13;102867.50;4980941;28;20062;-69
2021/03/29 10:47:17;;;;;;;11.57;3.95;;;;;;;15.85;54.88;102870.13;4972466;28;20029;-69
2021/03/29 10:49:43;;;;;;;14.45;4.70;;;;;;;15.83;55.22;102866.66;4973132;28;20027;-69
2021/03/29 10:52:09;;;;;;;13.43;4.13;;;;;;;15.97;56.12;102869.00;4976564;28;20034;-70
2021/03/29 10:54:35;;;;;;;15.88;4.30;;;;;;;15.96;55.04;102855.66;4981663;28;20049;-70
2021/03/29 10:57:01;;;;;;;17.05;4.68;;;;;;;15.96;55.20;102866.44;4975031;28;20078;-69
2021/03/29 10:59:27;;;;;;;16.63;5.03;;;;;;;15.87;54.37;102858.22;4976946;28;20069;-68
2021/03/29 11:01:52;;;;;;;13.65;5.13;;;;;;;15.82;55.42;102864.97;4970305;28;20489;-68
2021/03/29 11:04:18;;;;;;;14.55;4.60;;;;;;;15.87;55.27;102868.13;4983241;28;20047;-68
2021/03/29 11:06:43;;;;;;;11.48;4.45;;;;;;;16.06;55.14;102868.16;4978796;28;20081;-70
2021/03/29 11:09:09;;;;;;;16.40;5.05;;;;;;;16.29;53.74;102865.16;4969870;28;20493;-70
2021/03/29 11:11:35;;;;;;;12.82;4.72;;;;;;;16.14;54.04;102863.91;4979198;28;20121;-69
2021/03/29 11:14:00;;;;;;;11.10;4.38;;;;;;;15.93;54.50;102848.72;4978484;28;20065;-69
2021/03/29 11:16:27;;;;;;;13.77;4.82;;;;;;;15.90;54.35;102852.56;4977135;28;20054;-70
2021/03/29 11:18:52;;;;;;;11.75;3.83;;;;;;;16.01;53.75;102848.88;4983203;28;20505;-70
2021/03/29 11:21:18;;;;;;;15.57;4.07;;;;;;;16.30;53.42;102874.13;4977567;28;20057;-70
2021/03/29 11:23:44;;;;;;;18.73;4.50;;;;;;;16.30;53.30;102860.66;4980198;28;20038;-70
2021/03/29 11:26:10;;;;;;;14.65;4.50;;;;;;;16.12;53.41;102855.13;4978605;28;20628;-70
2021/03/29 11:28:37;;;;;;;15.95;4.57;;;;;;;16.15;53.98;102871.00;4970877;28;20038;-69
2021/03/29 11:31:02;;;;;;;15.27;4.50;;;;;;;16.33;53.08;102874.69;4978762;28;20060;-68
2021/03/29 11:33:28;;;;;;;14.30;4.90;;;;;;;16.22;52.67;102864.06;4978208;28;20121;-69